createdAt,value
2022-07-28T00:02:26.141Z,4.28
2022-07-28T00:04:52.821Z,3.88
2022-07-28T00:07:20.479Z,3.72
2022-07-28T00:09:47.288Z,3.95
2022-07-28T00:12:13.898Z,4.70
2022-07-28T00:14:40.580Z,4.30
2022-07-28T00:17:07.321Z,4.53
2022-07-28T00:19:34.047Z,4.35
2022-07-28T00:22:00.717Z,4.53
2022-07-28T00:24:27.330Z,5.43
2022-07-28T00:26:54.128Z,4.72
2022-07-28T00:29:20.825Z,4.82
2022-07-28T00:31:47.930Z,4.63
2022-07-28T00:34:15.200Z,4.57
2022-07-28T00:36:42.082Z,6.43
2022-07-28T00:39:08.764Z,5.13
2022-07-28T00:41:36.481Z,5.35
2022-07-28T00:44:06.584Z,5.75
2022-07-28T00:46:33.431Z,5.50
2022-07-28T00:49:00.645Z,5.20
2022-07-28T00:51:28.194Z,4.80
2022-07-28T00:53:55.748Z,5.53
2022-07-28T00:56:22.525Z,5.85
2022-07-28T00:58:49.238Z,5.63
2022-07-28T01:01:19.845Z,6.28
2022-07-28T01:03:56.728Z,6.13
2022-07-28T01:06:32.575Z,5.32
2022-07-28T01:09:20.753Z,5.78
2022-07-28T01:11:55.249Z,5.88
2022-07-28T01:14:44.747Z,6.07
2022-07-28T01:17:26.932Z,6.03
2022-07-28T01:20:08.715Z,6.07
2022-07-28T01:22:41.213Z,5.97
2022-07-28T01:26:00.094Z,5.97
2022-07-28T01:28:50.622Z,6.45
2022-07-28T01:31:23.645Z,5.97
2022-07-28T01:33:58.233Z,7.15
2022-07-28T01:36:40.257Z,6.00
2022-07-28T01:39:06.866Z,6.15
2022-07-28T01:41:36.561Z,6.53
2022-07-28T01:44:07.104Z,5.80
2022-07-28T01:46:35.960Z,6.75
2022-07-28T01:49:03.454Z,6.93
2022-07-28T01:51:33.433Z,7.50
2022-07-28T01:54:01.843Z,7.25
2022-07-28T01:58:58.475Z,6.80
2022-07-28T02:01:26.947Z,7.50
2022-07-28T02:03:56.385Z,7.28
2022-07-28T02:06:23.643Z,7.03
2022-07-28T02:08:50.947Z,6.95
2022-07-28T02:11:36.436Z,7.93
2022-07-28T02:14:03.999Z,7.15
2022-07-28T02:16:32.057Z,7.25
2022-07-28T02:19:00.618Z,7.00
2022-07-28T02:21:31.304Z,7.53
2022-07-28T02:23:59.816Z,7.22
2022-07-28T02:26:32.358Z,7.53
2022-07-28T02:29:02.465Z,7.22
2022-07-28T02:31:37.791Z,7.70
2022-07-28T02:34:10.787Z,7.45
2022-07-28T02:36:42.689Z,7.28
2022-07-28T02:39:25.104Z,6.72
2022-07-28T02:42:07.438Z,7.55
2022-07-28T02:44:41.059Z,6.93
2022-07-28T02:47:10.544Z,8.02
2022-07-28T02:49:38.818Z,7.10
2022-07-28T02:52:10.440Z,7.05
2022-07-28T02:54:38.151Z,7.50
2022-07-28T02:57:05.403Z,7.57
2022-07-28T02:59:32.536Z,7.57
2022-07-28T03:02:00.331Z,6.50
2022-07-28T03:04:46.410Z,7.40
2022-07-28T03:07:13.331Z,7.90
2022-07-28T03:09:42.292Z,7.63
2022-07-28T03:12:09.836Z,7.57
2022-07-28T03:14:36.627Z,7.38
2022-07-28T03:17:03.911Z,7.07
2022-07-28T03:19:30.986Z,7.15
2022-07-28T03:21:57.844Z,7.63
2022-07-28T03:24:28.151Z,7.43
2022-07-28T03:27:36.666Z,7.43
2022-07-28T03:30:11.491Z,7.43
2022-07-28T03:32:44.200Z,7.18
2022-07-28T03:35:11.906Z,7.10
2022-07-28T03:37:54.145Z,6.68
2022-07-28T03:40:23.664Z,6.63
2022-07-28T03:42:51.931Z,6.65
2022-07-28T03:45:19.262Z,7.13
2022-07-28T03:47:54.821Z,7.53
2022-07-28T03:50:26.378Z,7.40
2022-07-28T03:52:53.677Z,7.45
2022-07-28T03:55:21.077Z,6.85
2022-07-28T03:57:47.890Z,7.35
2022-07-28T04:00:18.988Z,7.22
2022-07-28T04:02:46.815Z,7.43
2022-07-28T04:05:15.450Z,7.10
2022-07-28T04:07:42.741Z,6.93
2022-07-28T04:10:12.010Z,6.95
2022-07-28T04:12:52.078Z,7.30
2022-07-28T04:15:19.953Z,7.10
2022-07-28T04:17:48.684Z,7.38
2022-07-28T04:20:19.355Z,6.72
2022-07-28T04:22:46.968Z,6.25
2022-07-28T04:25:14.553Z,6.40
2022-07-28T04:27:42.465Z,6.75
2022-07-28T04:30:17.034Z,6.20
2022-07-28T04:32:45.387Z,6.20
2022-07-28T04:37:45.021Z,6.93
2022-07-28T04:40:13.057Z,6.63
2022-07-28T04:42:40.480Z,6.63
2022-07-28T04:45:08.994Z,6.73
2022-07-28T04:47:36.964Z,7.07
2022-07-28T04:50:05.256Z,6.85
2022-07-28T04:52:33.782Z,6.68
2022-07-28T04:55:01.018Z,6.85
2022-07-28T04:57:29.927Z,5.93
2022-07-28T04:59:57.706Z,6.57
2022-07-28T05:02:24.731Z,6.43
2022-07-28T05:04:51.465Z,6.43
2022-07-28T05:07:18.393Z,6.00
2022-07-28T05:09:45.037Z,6.00
2022-07-28T05:12:11.695Z,6.55
2022-07-28T05:14:38.340Z,6.03
2022-07-28T05:17:04.987Z,5.68
2022-07-28T05:19:31.689Z,5.90
2022-07-28T05:21:58.255Z,6.80
2022-07-28T05:24:24.877Z,5.55
2022-07-28T05:26:51.469Z,6.25
2022-07-28T05:29:18.204Z,6.80
2022-07-28T05:31:44.932Z,6.60
2022-07-28T05:34:12.170Z,7.13
2022-07-28T05:36:39.180Z,6.32
2022-07-28T05:39:05.780Z,6.40
2022-07-28T05:41:32.402Z,6.32
2022-07-28T05:44:01.159Z,5.93
2022-07-28T05:46:28.819Z,5.63
2022-07-28T05:48:55.504Z,5.80
2022-07-28T05:51:22.139Z,5.68
2022-07-28T05:53:48.809Z,5.97
2022-07-28T05:56:15.487Z,6.00
2022-07-28T05:58:42.138Z,6.18
2022-07-28T06:01:08.831Z,5.85
2022-07-28T06:03:41.544Z,6.10
2022-07-28T06:06:15.049Z,5.68
2022-07-28T06:08:42.572Z,6.13
2022-07-28T06:11:09.833Z,6.15
2022-07-28T06:13:37.840Z,5.32
2022-07-28T06:16:08.466Z,6.63
2022-07-28T06:18:39.307Z,5.93
2022-07-28T06:21:06.049Z,6.10
2022-07-28T06:23:32.643Z,5.90
2022-07-28T06:25:59.270Z,6.15
2022-07-28T06:28:25.905Z,5.97
2022-07-28T06:30:52.586Z,5.95
2022-07-28T06:33:19.212Z,6.30
2022-07-28T06:35:48.368Z,5.88
2022-07-28T06:38:20.259Z,6.15
2022-07-28T06:40:47.181Z,5.60
2022-07-28T06:43:14.729Z,5.85
2022-07-28T06:45:41.813Z,5.90
2022-07-28T06:48:08.789Z,5.28
2022-07-28T06:50:39.222Z,5.90
2022-07-28T06:53:06.039Z,5.40
2022-07-28T06:55:35.368Z,5.95
2022-07-28T06:58:03.695Z,5.90
2022-07-28T07:00:30.880Z,5.95
2022-07-28T07:02:57.648Z,6.07
2022-07-28T07:05:25.776Z,5.70
2022-07-28T07:07:52.629Z,5.78
2022-07-28T07:10:19.285Z,5.05
2022-07-28T07:12:46.233Z,5.75
2022-07-28T07:15:12.892Z,5.20
2022-07-28T07:17:39.592Z,5.55
2022-07-28T07:20:07.290Z,6.22
2022-07-28T07:22:34.494Z,5.90
2022-07-28T07:27:36.292Z,5.93
2022-07-28T11:39:25.363Z,3.33
2022-07-28T11:41:52.409Z,2.95
2022-07-28T11:44:27.180Z,3.13
2022-07-28T11:46:54.613Z,2.88
2022-07-28T11:49:23.229Z,2.70
2022-07-28T11:52:16.688Z,3.05
2022-07-28T11:54:49.080Z,3.30
2022-07-28T11:57:16.859Z,2.80
2022-07-28T12:02:18.153Z,2.92
2022-07-28T12:04:45.917Z,2.65
2022-07-28T12:07:13.223Z,2.42
2022-07-28T12:09:42.442Z,2.75
2022-07-28T12:12:09.650Z,2.60
2022-07-28T12:14:42.347Z,2.53
2022-07-28T12:17:09.639Z,2.78
2022-07-28T12:19:36.488Z,2.53
2022-07-28T12:22:14.942Z,2.67
2022-07-28T12:24:45.603Z,2.30
2022-07-28T12:27:15.330Z,2.28
2022-07-28T12:29:43.542Z,2.78
2022-07-28T12:32:10.697Z,2.42
2022-07-28T12:34:40.780Z,2.53
2022-07-28T12:37:12.267Z,2.53
2022-07-28T12:39:42.018Z,2.42
2022-07-28T12:42:11.439Z,2.42
2022-07-28T12:44:43.377Z,2.25
2022-07-28T12:47:12.349Z,2.50
2022-07-28T12:49:41.123Z,2.22
2022-07-28T12:52:22.330Z,2.42
2022-07-28T12:54:54.871Z,2.58
2022-07-28T12:57:48.311Z,2.55
2022-07-28T13:00:19.489Z,2.70
2022-07-28T13:02:47.563Z,2.58
2022-07-28T13:05:27.375Z,2.63
2022-07-28T13:08:05.762Z,2.50
2022-07-28T13:10:32.782Z,2.90
2022-07-28T13:13:01.746Z,2.75
2022-07-28T13:15:28.429Z,2.40
2022-07-28T13:17:56.995Z,2.20
2022-07-28T13:20:26.824Z,2.40
2022-07-28T13:22:54.759Z,2.30
2022-07-28T13:25:21.856Z,2.42
2022-07-28T13:27:54.175Z,2.45
2022-07-28T13:30:22.529Z,2.47
2022-07-28T13:32:49.419Z,1.98
2022-07-28T13:35:19.265Z,2.65
2022-07-28T13:37:48.485Z,2.22
2022-07-28T13:40:15.294Z,2.60
2022-07-28T13:42:53.308Z,2.65
2022-07-28T13:45:24.344Z,2.15
2022-07-28T13:47:52.139Z,2.22
2022-07-28T13:50:19.574Z,2.50
2022-07-28T13:52:46.161Z,2.70
2022-07-28T13:55:12.810Z,2.20
2022-07-28T13:57:43.250Z,2.50
2022-07-28T14:00:10.526Z,2.35
2022-07-28T14:02:38.692Z,2.30
2022-07-28T14:05:11.280Z,2.20
2022-07-28T14:07:37.839Z,2.42
2022-07-28T14:10:06.861Z,2.60
2022-07-28T14:12:34.118Z,2.13
2022-07-28T14:15:05.260Z,2.22
2022-07-28T14:17:44.266Z,2.25
2022-07-28T14:20:13.398Z,2.50
2022-07-28T14:22:40.239Z,2.50
2022-07-28T14:25:07.095Z,2.20
2022-07-28T14:27:34.347Z,2.22
2022-07-28T14:30:03.480Z,2.30
2022-07-28T14:32:31.148Z,2.20
2022-07-28T14:34:57.727Z,2.20
2022-07-28T14:37:24.989Z,1.92
2022-07-28T14:39:51.675Z,2.27
2022-07-28T14:42:18.502Z,2.47
2022-07-28T14:44:45.263Z,1.95
2022-07-28T14:47:12.033Z,2.28
2022-07-28T14:49:57.122Z,2.10
2022-07-28T14:52:24.754Z,2.05
2022-07-28T14:54:51.553Z,2.30
2022-07-28T14:57:18.178Z,2.40
2022-07-28T14:59:44.901Z,2.60
2022-07-28T15:02:11.699Z,2.00
2022-07-28T15:04:38.393Z,2.20
2022-07-28T15:07:05.047Z,2.50
2022-07-28T15:09:31.883Z,2.40
2022-07-28T15:11:58.835Z,2.20
2022-07-28T15:14:26.101Z,2.00
2022-07-28T15:16:52.916Z,2.38
2022-07-28T15:19:20.248Z,2.20
2022-07-28T15:21:47.576Z,2.00
2022-07-28T15:24:14.860Z,2.25
2022-07-28T15:29:08.672Z,2.28
2022-07-28T15:31:37.528Z,2.50
2022-07-28T15:34:06.288Z,2.13
2022-07-28T15:36:34.845Z,2.10
2022-07-28T15:39:01.510Z,2.00
2022-07-28T15:41:28.760Z,2.30
2022-07-28T15:43:56.267Z,2.30
2022-07-28T15:48:49.944Z,2.00
2022-07-28T15:51:16.704Z,1.70
2022-07-28T15:53:46.042Z,2.00
2022-07-28T15:56:12.910Z,2.22
2022-07-28T15:58:39.546Z,2.22
2022-07-28T16:01:07.304Z,2.20
2022-07-28T16:03:34.009Z,3.50
2022-07-28T16:06:00.602Z,2.10
2022-07-28T16:08:27.339Z,2.50
2022-07-28T16:10:54.929Z,2.10
2022-07-28T16:13:35.835Z,2.30
2022-07-28T16:16:14.238Z,2.00
2022-07-28T16:18:42.540Z,2.55
2022-07-28T16:21:10.528Z,1.77
2022-07-28T16:23:37.455Z,1.92
2022-07-28T16:26:07.774Z,2.38
2022-07-28T16:28:34.999Z,2.08
2022-07-28T16:31:01.751Z,2.15
2022-07-28T16:33:28.391Z,1.93
2022-07-28T16:36:00.486Z,1.98
2022-07-28T16:38:27.098Z,2.13
2022-07-28T16:40:53.760Z,2.08
2022-07-28T16:43:20.345Z,2.03
2022-07-28T16:45:47.033Z,2.00
2022-07-28T16:48:13.768Z,2.10
2022-07-28T16:50:45.757Z,2.10
2022-07-28T16:53:14.012Z,2.00
2022-07-28T16:55:42.154Z,2.17
2022-07-28T16:58:08.949Z,1.92
2022-07-28T17:00:35.638Z,1.98
2022-07-28T17:03:02.255Z,2.08
2022-07-28T17:05:28.976Z,2.15
2022-07-28T17:07:55.597Z,1.90
2022-07-28T17:10:27.212Z,2.20
2022-07-28T17:12:54.604Z,1.90
2022-07-28T17:15:22.852Z,2.00
2022-07-28T17:17:50.797Z,2.10
2022-07-28T17:20:17.611Z,1.95
2022-07-28T17:22:45.028Z,1.90
2022-07-28T17:25:43.665Z,2.03
2022-07-28T17:27:58.713Z,2.30
2022-07-28T17:30:25.683Z,2.38
2022-07-28T17:32:52.834Z,2.00
2022-07-28T17:35:34.300Z,2.17
2022-07-28T17:38:03.700Z,2.00
2022-07-28T17:40:30.728Z,2.20
2022-07-28T17:42:57.415Z,2.13
2022-07-28T17:45:24.477Z,2.10
2022-07-28T17:47:51.782Z,1.98
2022-07-28T17:50:18.803Z,1.90
2022-07-28T17:52:46.322Z,2.00
2022-07-28T17:55:35.698Z,2.20
2022-07-28T17:58:29.162Z,2.35
2022-07-28T18:03:58.832Z,1.95
2022-07-28T18:06:37.361Z,2.85
2022-07-28T18:09:08.218Z,2.50
2022-07-28T18:11:56.784Z,2.50
2022-07-28T18:14:29.219Z,2.25
2022-07-28T18:16:56.991Z,2.10
2022-07-28T18:19:23.625Z,2.60
2022-07-28T18:21:50.368Z,1.92
2022-07-28T18:24:18.584Z,2.67
2022-07-28T18:26:45.535Z,2.47
2022-07-28T18:29:12.184Z,2.20
2022-07-28T18:31:45.795Z,2.20
2022-07-28T18:34:13.606Z,2.30
2022-07-28T18:36:40.598Z,3.00
2022-07-28T18:39:07.429Z,2.53
2022-07-28T18:41:46.484Z,2.00
2022-07-28T18:44:15.889Z,1.90
2022-07-28T18:46:43.039Z,2.30
2022-07-28T18:49:10.065Z,2.30
2022-07-28T18:51:36.987Z,2.13
2022-07-28T18:54:03.851Z,2.28
2022-07-28T18:56:31.515Z,2.25
2022-07-28T18:58:58.141Z,2.55
2022-07-28T19:01:24.831Z,2.00
2022-07-28T19:03:51.500Z,2.28
2022-07-28T19:06:18.349Z,2.85
2022-07-28T19:08:45.072Z,2.30
2022-07-28T19:11:11.656Z,2.50
2022-07-28T19:13:38.273Z,2.53
2022-07-28T19:16:05.652Z,2.55
2022-07-28T19:18:32.277Z,2.20
2022-07-28T19:20:58.893Z,2.65
2022-07-28T19:23:25.522Z,2.28
2022-07-28T19:25:52.459Z,2.53
2022-07-28T19:28:19.104Z,2.60
2022-07-28T19:30:49.767Z,2.25
2022-07-28T19:33:19.502Z,2.50
2022-07-28T19:35:46.289Z,2.40
2022-07-28T19:38:13.228Z,2.63
2022-07-28T19:40:41.436Z,2.30
2022-07-28T19:43:08.262Z,2.30
2022-07-28T19:45:37.276Z,2.30
2022-07-28T19:48:04.231Z,2.15
2022-07-28T19:50:31.119Z,2.17
2022-07-28T19:52:58.122Z,2.40
2022-07-28T19:55:26.926Z,2.10
2022-07-28T19:57:55.984Z,2.35
2022-07-28T20:00:22.788Z,2.42
2022-07-28T20:02:49.664Z,2.33
2022-07-28T20:05:16.986Z,2.60
2022-07-28T20:07:43.749Z,2.25
2022-07-28T20:10:10.423Z,2.70
2022-07-28T20:12:37.296Z,2.33
2022-07-28T20:15:07.144Z,2.20
2022-07-28T20:17:40.913Z,2.45
2022-07-28T20:20:10.026Z,2.22
2022-07-28T20:22:38.662Z,2.38
2022-07-28T20:25:05.661Z,2.30
2022-07-28T20:27:40.243Z,2.47
2022-07-28T20:30:12.805Z,2.25
2022-07-28T20:32:42.170Z,2.33
2022-07-28T20:35:10.701Z,2.30
2022-07-28T20:37:38.077Z,2.45
2022-07-28T20:40:09.360Z,2.22
2022-07-28T20:42:37.057Z,2.35
2022-07-28T20:45:04.664Z,2.70
2022-07-28T20:47:32.791Z,2.38
2022-07-28T20:52:26.472Z,2.50
2022-07-28T20:54:54.707Z,2.83
2022-07-28T20:57:22.517Z,2.05
2022-07-28T20:59:51.198Z,2.60
2022-07-28T21:02:19.451Z,2.40
2022-07-28T21:04:46.316Z,2.35
2022-07-28T21:07:18.132Z,2.20
2022-07-28T21:10:06.007Z,2.92
2022-07-28T21:12:33.826Z,2.65
2022-07-28T21:15:00.644Z,2.40
2022-07-28T21:17:27.315Z,2.50
2022-07-28T21:19:53.916Z,2.58
2022-07-28T21:22:23.125Z,2.25
2022-07-28T21:24:55.395Z,2.33
2022-07-28T21:27:23.203Z,2.33
2022-07-28T21:32:17.609Z,2.20
2022-07-28T21:34:44.780Z,2.80
2022-07-28T21:37:12.825Z,2.38
2022-07-28T21:42:08.371Z,2.50
2022-07-28T21:44:36.640Z,2.30
2022-07-28T21:47:03.524Z,2.40
2022-07-28T21:49:31.203Z,2.47
2022-07-28T21:51:58.513Z,2.60
2022-07-28T21:54:25.543Z,2.35
2022-07-28T21:56:52.356Z,2.50
2022-07-28T21:59:19.436Z,2.17
2022-07-28T22:01:46.216Z,2.13
2022-07-28T22:04:13.730Z,2.40
2022-07-28T22:06:40.754Z,2.33
2022-07-28T22:09:13.410Z,2.47
2022-07-28T22:11:40.341Z,2.20
2022-07-28T22:14:07.230Z,2.33
2022-07-28T22:16:33.987Z,2.58
2022-07-28T22:19:00.704Z,2.05
2022-07-28T22:21:27.712Z,2.92
2022-07-28T22:23:54.483Z,1.80
2022-07-28T22:26:21.419Z,2.30
2022-07-28T22:28:48.334Z,2.20
2022-07-28T22:31:15.397Z,2.30
2022-07-28T22:33:42.203Z,2.13
2022-07-28T22:36:09.470Z,2.35
2022-07-28T22:38:36.519Z,2.20
2022-07-28T22:41:03.368Z,2.30
2022-07-28T22:43:32.921Z,2.40
2022-07-28T22:45:59.944Z,2.22
2022-07-28T22:48:26.693Z,2.70
2022-07-28T22:50:53.366Z,2.60
2022-07-28T22:53:20.163Z,2.55
2022-07-28T22:55:46.963Z,2.45
2022-07-28T22:58:13.558Z,2.30
2022-07-28T23:00:40.189Z,2.35
2022-07-28T23:03:08.531Z,2.25
2022-07-28T23:05:39.632Z,2.22
2022-07-28T23:08:06.370Z,2.15
2022-07-28T23:10:33.258Z,2.00
2022-07-28T23:13:00.214Z,2.10
2022-07-28T23:15:39.532Z,2.28
2022-07-28T23:18:14.037Z,2.13
2022-07-28T23:20:41.395Z,2.30
2022-07-28T23:23:08.451Z,2.10
2022-07-28T23:25:40.504Z,2.85
2022-07-28T23:28:07.477Z,2.38
2022-07-28T23:30:34.145Z,2.40
2022-07-28T23:33:00.832Z,2.10
2022-07-28T23:35:27.628Z,2.33
2022-07-28T23:37:54.392Z,2.10
2022-07-28T23:40:21.168Z,2.15
2022-07-28T23:42:48.763Z,2.15
2022-07-28T23:45:15.434Z,3.08
2022-07-28T23:47:42.054Z,2.28
2022-07-28T23:50:09.105Z,2.20
2022-07-28T23:52:35.717Z,2.40
2022-07-28T23:55:02.341Z,2.20
2022-07-28T23:57:30.869Z,2.15
2022-07-28T23:59:58.788Z,2.30
